Airfield :
LOGIN :

Register | Disclaimer

   EN    FR    IT 

 










Legend :    VFR   Marginal VFR   IFR   Intensive IFR   Very Intensive IFR
Visi :
Ceiling :
>= 8 km
>= 3000ft
5 to 8 km
1000 to 3000 ft
1500m to 5 km
500 to 1000 ft
800 to 1500m
200 to 500 ft
< 800m
< 200 ft
Symbols :   Thunderstorms  Fog  Heavy snow  Heavy precipitations  Wind > 20 kt
SIGMETs :     Misc.  Thunderstorms  Icing  Turbulence  Mountain Waves  Volcanic Ashes







- Airport Elevation : 1213 ft
- IATA code : SCQ


LEST - Santiago de Compostela

CURRENT METAR :
  • 210930Z 13003KT 030V190 CAVOK 30/11 Q1016 NOSIG

EXPIRED METARs :
  • 210900Z 14003KT 100V180 CAVOK 29/11 Q1016 NOSIG
  • 210830Z 12003KT 090V150 CAVOK 27/11 Q1016 NOSIG
  • 210800Z 11003KT 100V170 CAVOK 26/12 Q1016 NOSIG
  • 210730Z VRB02KT CAVOK 25/11 Q1016 NOSIG
  • 210700Z 11006KT CAVOK 24/11 Q1016 NOSIG

TAF TAF LEST
Valid from the 21 at 06:00 until the 22 at 06:00 UTC


210500Z 2106/2206 10005KT CAVOK TX35/2115Z TN17/2123Z
BECMG 2110/2114 25010KT
BECMG 2119/2123 VRB03KT
TEMPO 2200/2206 1500 BR BCFG BKN003
TEMPO 2203/2206 0350 FG VV001
No reported NOTAMs for that airfield.



MET'MAP, your aeronautical weather chart ! - Copyright ORBIFLY December 2007 - Disclaimer

ORBIFLY MET'MAP TEAM :

Programming & Development : Alexandra Zaïnal
Concept & Development : Baudouin d'Aumeries
Co-Development & Prog : Marc-Olivier Méhu
Technical & hardware support : Manuel Goepfert

Contact : metmap@orbifly.com




SOURCES & CREDITS :

   NOAA